ACA267 CYYZ-KPWM
Flight info
| Callsign | ACA267 |
|---|---|
| Flight time | 1h 12m |
| Altitude | 39000 |
| Route | CYYZ/23 N0444F390 KEPTA3 BMPAH DCT AEVON DCT HANKK Q935 AUDIL Q84 CAM CDOGG4 KPWM/29 |
| Aircraft | A319/M-V/N |
Departure
| Time | 2026-05-03 23:20 |
|---|---|
| Airport | Toronto Pearson International Airport (CYYZ) |
Arrival
| Time | 2026-05-04 00:33 |
|---|---|
| Airport | Portland International Jetport (KPWM) |
| Time | Latitude | Longitude | Altitude | Speed | Heading |
|---|---|---|---|---|---|
| 2026-05-03 22:59 | 43.68462 | -79.62454 | 564 ft | 0 kts | 50° |
| 2026-05-03 23:07 | 43.68452 | -79.62470 | 565 ft | 2 kts | 46° |
| 2026-05-03 23:07 | 43.68439 | -79.62486 | 570 ft | 2 kts | 37° |
| 2026-05-03 23:07 | 43.68425 | -79.62497 | 565 ft | 2 kts | 14° |
| 2026-05-03 23:07 | 43.68409 | -79.62495 | 566 ft | 2 kts | 332° |
| 2026-05-03 23:08 | 43.68402 | -79.62489 | 566 ft | 1 kts | 321° |
| 2026-05-03 23:08 | 43.68399 | -79.62486 | 566 ft | 0 kts | 319° |
| 2026-05-03 23:14 | 43.68402 | -79.62490 | 566 ft | 1 kts | 319° |
| 2026-05-03 23:14 | 43.68411 | -79.62501 | 567 ft | 5 kts | 318° |
| 2026-05-03 23:14 | 43.68457 | -79.62563 | 569 ft | 14 kts | 314° |
| 2026-05-03 23:14 | 43.68481 | -79.62681 | 562 ft | 13 kts | 244° |
| 2026-05-03 23:15 | 43.68524 | -79.62812 | 565 ft | 21 kts | 318° |
| 2026-05-03 23:15 | 43.68653 | -79.62980 | 559 ft | 31 kts | 317° |
| 2026-05-03 23:15 | 43.68826 | -79.63206 | 562 ft | 38 kts | 316° |
| 2026-05-03 23:15 | 43.69020 | -79.63458 | 565 ft | 25 kts | 317° |
| 2026-05-03 23:16 | 43.69085 | -79.63552 | 566 ft | 9 kts | 284° |
| 2026-05-03 23:16 | 43.69068 | -79.63610 | 566 ft | 6 kts | 246° |
| 2026-05-03 23:16 | 43.69039 | -79.63625 | 567 ft | 9 kts | 169° |
| 2026-05-03 23:16 | 43.68970 | -79.63538 | 566 ft | 19 kts | 135° |
| 2026-05-03 23:17 | 43.68860 | -79.63394 | 566 ft | 20 kts | 135° |
| 2026-05-03 23:17 | 43.68855 | -79.63273 | 562 ft | 10 kts | 7° |
| 2026-05-03 23:17 | 43.68916 | -79.63322 | 564 ft | 11 kts | 317° |
| 2026-05-03 23:17 | 43.68976 | -79.63398 | 565 ft | 13 kts | 315° |
| 2026-05-03 23:18 | 43.69049 | -79.63496 | 565 ft | 16 kts | 317° |
| 2026-05-03 23:18 | 43.69134 | -79.63501 | 567 ft | 13 kts | 39° |
| 2026-05-03 23:18 | 43.69224 | -79.63428 | 569 ft | 17 kts | 7° |
| 2026-05-03 23:18 | 43.69362 | -79.63437 | 564 ft | 20 kts | 323° |
| 2026-05-03 23:19 | 43.69365 | -79.63577 | 565 ft | 0 kts | 226° |
| 2026-05-03 23:20 | 43.69311 | -79.63655 | 568 ft | 28 kts | 226° |
| 2026-05-03 23:20 | 43.69044 | -79.64038 | 568 ft | 93 kts | 226° |
| 2026-05-03 23:20 | 43.68428 | -79.64935 | 750 ft | 153 kts | 228° |
| 2026-05-03 23:20 | 43.67687 | -79.66105 | 1500 ft | 169 kts | 235° |
| 2026-05-03 23:21 | 43.67045 | -79.67485 | 2403 ft | 180 kts | 241° |
| 2026-05-03 23:21 | 43.66033 | -79.68667 | 3298 ft | 209 kts | 203° |
| 2026-05-03 23:21 | 43.64509 | -79.68744 | 4249 ft | 236 kts | 168° |
| 2026-05-03 23:21 | 43.63022 | -79.67579 | 5239 ft | 258 kts | 142° |
| 2026-05-03 23:22 | 43.60081 | -79.64326 | 7287 ft | 281 kts | 149° |
| 2026-05-03 23:22 | 43.58399 | -79.62917 | 8448 ft | 285 kts | 154° |
| 2026-05-03 23:22 | 43.56631 | -79.61715 | 9585 ft | 289 kts | 159° |
| 2026-05-03 23:23 | 43.54749 | -79.60653 | 10518 ft | 299 kts | 162° |
| 2026-05-03 23:23 | 43.52794 | -79.59391 | 11093 ft | 325 kts | 147° |
| 2026-05-03 23:23 | 43.51193 | -79.57052 | 11689 ft | 349 kts | 123° |
| 2026-05-03 23:23 | 43.50288 | -79.53864 | 12316 ft | 368 kts | 101° |
| 2026-05-03 23:24 | 43.50256 | -79.50283 | 12953 ft | 383 kts | 79° |
| 2026-05-03 23:24 | 43.51109 | -79.46773 | 13604 ft | 393 kts | 64° |
| 2026-05-03 23:24 | 43.51929 | -79.43129 | 14199 ft | 406 kts | 81° |
| 2026-05-03 23:24 | 43.51842 | -79.39230 | 15018 ft | 411 kts | 101° |
| 2026-05-03 23:25 | 43.51056 | -79.35429 | 15800 ft | 415 kts | 109° |
| 2026-05-03 23:25 | 43.50043 | -79.31691 | 16551 ft | 419 kts | 112° |
| 2026-05-03 23:25 | 43.48925 | -79.27955 | 17284 ft | 424 kts | 114° |
| 2026-05-03 23:25 | 43.47757 | -79.24222 | 18011 ft | 428 kts | 114° |
| 2026-05-03 23:26 | 43.46548 | -79.20436 | 18630 ft | 433 kts | 115° |
| 2026-05-03 23:26 | 43.45328 | -79.16619 | 19238 ft | 438 kts | 115° |
| 2026-05-03 23:26 | 43.44106 | -79.12752 | 19818 ft | 443 kts | 114° |
| 2026-05-03 23:26 | 43.42880 | -79.08840 | 20395 ft | 448 kts | 114° |
| 2026-05-03 23:27 | 43.41649 | -79.04891 | 20978 ft | 452 kts | 114° |
| 2026-05-03 23:27 | 43.40405 | -79.00894 | 21529 ft | 456 kts | 114° |
| 2026-05-03 23:27 | 43.39144 | -78.96839 | 22068 ft | 461 kts | 114° |
| 2026-05-03 23:27 | 43.37887 | -78.92794 | 22591 ft | 465 kts | 114° |
| 2026-05-03 23:28 | 43.36609 | -78.88684 | 23124 ft | 469 kts | 114° |
| 2026-05-03 23:28 | 43.35320 | -78.84542 | 23597 ft | 474 kts | 114° |
| 2026-05-03 23:28 | 43.34023 | -78.80373 | 24054 ft | 476 kts | 114° |
| 2026-05-03 23:28 | 43.32711 | -78.76172 | 24487 ft | 480 kts | 115° |
| 2026-05-03 23:29 | 43.31388 | -78.71951 | 24930 ft | 483 kts | 115° |
| 2026-05-03 23:29 | 43.30054 | -78.67710 | 25353 ft | 486 kts | 115° |
| 2026-05-03 23:29 | 43.28709 | -78.63445 | 25750 ft | 489 kts | 115° |
| 2026-05-03 23:29 | 43.27371 | -78.59205 | 26153 ft | 492 kts | 115° |
| 2026-05-03 23:30 | 43.26008 | -78.54890 | 26635 ft | 492 kts | 115° |
| 2026-05-03 23:30 | 43.24650 | -78.50589 | 27208 ft | 491 kts | 115° |
| 2026-05-03 23:30 | 43.23291 | -78.46292 | 27779 ft | 491 kts | 115° |
| 2026-05-03 23:30 | 43.21934 | -78.42004 | 28351 ft | 490 kts | 115° |
| 2026-05-03 23:31 | 43.20577 | -78.37724 | 28924 ft | 489 kts | 116° |
| 2026-05-03 23:31 | 43.18951 | -78.33665 | 29486 ft | 485 kts | 126° |
| 2026-05-03 23:31 | 43.17029 | -78.29884 | 30030 ft | 483 kts | 129° |
| 2026-05-03 23:31 | 43.15014 | -78.26218 | 30463 ft | 482 kts | 131° |
| 2026-05-03 23:32 | 43.12949 | -78.22599 | 30891 ft | 482 kts | 132° |
| 2026-05-03 23:32 | 43.10857 | -78.19012 | 31309 ft | 482 kts | 132° |
| 2026-05-03 23:32 | 43.08762 | -78.15465 | 31727 ft | 482 kts | 133° |
| 2026-05-03 23:32 | 43.06634 | -78.11891 | 32140 ft | 482 kts | 133° |
| 2026-05-03 23:33 | 43.04510 | -78.08340 | 32554 ft | 482 kts | 133° |
| 2026-05-03 23:33 | 43.02382 | -78.04792 | 32973 ft | 483 kts | 133° |
| 2026-05-03 23:33 | 43.00255 | -78.01251 | 33382 ft | 483 kts | 133° |
| 2026-05-03 23:33 | 42.98122 | -77.97707 | 33783 ft | 483 kts | 133° |
| 2026-05-03 23:34 | 42.95987 | -77.94161 | 34137 ft | 483 kts | 134° |
| 2026-05-03 23:34 | 42.93857 | -77.90617 | 34480 ft | 484 kts | 133° |
| 2026-05-03 23:34 | 42.92065 | -77.86701 | 34794 ft | 492 kts | 117° |
| 2026-05-03 23:34 | 42.91072 | -77.82219 | 35100 ft | 498 kts | 101° |
| 2026-05-03 23:35 | 42.90728 | -77.77516 | 35415 ft | 500 kts | 95° |
| 2026-05-03 23:35 | 42.90581 | -77.72777 | 35734 ft | 500 kts | 93° |
| 2026-05-03 23:35 | 42.90500 | -77.68039 | 36057 ft | 500 kts | 92° |
| 2026-05-03 23:35 | 42.90443 | -77.63289 | 36377 ft | 501 kts | 92° |
| 2026-05-03 23:36 | 42.90392 | -77.58543 | 36687 ft | 501 kts | 92° |
| 2026-05-03 23:36 | 42.90337 | -77.53794 | 36995 ft | 501 kts | 92° |
| 2026-05-03 23:36 | 42.90271 | -77.49043 | 37311 ft | 501 kts | 92° |
| 2026-05-03 23:36 | 42.90194 | -77.44294 | 37620 ft | 501 kts | 93° |
| 2026-05-03 23:37 | 42.90105 | -77.39540 | 37916 ft | 501 kts | 93° |
| 2026-05-03 23:37 | 42.90006 | -77.34788 | 38216 ft | 501 kts | 93° |
| 2026-05-03 23:37 | 42.89896 | -77.30037 | 38506 ft | 502 kts | 94° |
| 2026-05-03 23:37 | 42.89777 | -77.25296 | 38709 ft | 496 kts | 94° |
| 2026-05-03 23:38 | 42.89523 | -77.16018 | 38850 ft | 495 kts | 94° |
| 2026-05-03 23:38 | 42.89237 | -77.06563 | 38888 ft | 504 kts | 94° |
| 2026-05-03 23:39 | 42.88944 | -76.97011 | 38897 ft | 503 kts | 94° |
| 2026-05-03 23:39 | 42.88648 | -76.87531 | 38900 ft | 499 kts | 94° |
| 2026-05-03 23:40 | 42.88345 | -76.78078 | 38901 ft | 500 kts | 94° |
| 2026-05-03 23:40 | 42.88029 | -76.68581 | 38908 ft | 502 kts | 94° |
| 2026-05-03 23:41 | 42.87707 | -76.59082 | 38903 ft | 501 kts | 94° |
| 2026-05-03 23:41 | 42.87381 | -76.49614 | 38910 ft | 500 kts | 93° |
| 2026-05-03 23:42 | 42.88158 | -76.40169 | 38910 ft | 504 kts | 80° |
| 2026-05-03 23:42 | 42.89545 | -76.30784 | 38905 ft | 504 kts | 78° |
| 2026-05-03 23:43 | 42.91033 | -76.21462 | 38905 ft | 502 kts | 78° |
| 2026-05-03 23:43 | 42.92545 | -76.12157 | 38906 ft | 503 kts | 77° |
| 2026-05-03 23:44 | 42.94064 | -76.02831 | 38899 ft | 504 kts | 77° |
| 2026-05-03 23:44 | 42.95577 | -75.93503 | 38892 ft | 503 kts | 77° |
| 2026-05-03 23:45 | 42.97083 | -75.84176 | 38902 ft | 503 kts | 77° |
| 2026-05-03 23:45 | 42.98581 | -75.74847 | 38907 ft | 503 kts | 78° |
| 2026-05-03 23:46 | 43.00072 | -75.65506 | 38899 ft | 503 kts | 78° |
| 2026-05-03 23:46 | 43.01554 | -75.56175 | 38907 ft | 502 kts | 78° |
| 2026-05-03 23:47 | 43.03024 | -75.46851 | 38903 ft | 502 kts | 78° |
| 2026-05-03 23:47 | 43.04476 | -75.37568 | 38908 ft | 503 kts | 78° |
| 2026-05-03 23:48 | 43.05337 | -75.28126 | 38912 ft | 501 kts | 90° |
| 2026-05-03 23:48 | 43.05227 | -75.18601 | 38907 ft | 501 kts | 93° |
| 2026-05-03 23:49 | 43.04936 | -75.09095 | 38900 ft | 501 kts | 94° |
| 2026-05-03 23:49 | 43.04568 | -74.99623 | 38921 ft | 495 kts | 94° |
| 2026-05-03 23:50 | 43.04257 | -74.91783 | 38904 ft | 492 kts | 94° |
| 2026-05-03 23:50 | 43.03819 | -74.80902 | 38894 ft | 495 kts | 94° |
| 2026-05-03 23:51 | 43.03432 | -74.71490 | 38890 ft | 496 kts | 94° |
| 2026-05-03 23:51 | 43.03037 | -74.62096 | 38888 ft | 494 kts | 94° |
| 2026-05-03 23:52 | 43.02633 | -74.52727 | 38888 ft | 494 kts | 94° |
| 2026-05-03 23:52 | 43.02219 | -74.43352 | 38885 ft | 494 kts | 94° |
| 2026-05-03 23:53 | 43.01799 | -74.33989 | 38883 ft | 493 kts | 94° |
| 2026-05-03 23:53 | 43.01444 | -74.24625 | 38882 ft | 492 kts | 92° |
| 2026-05-03 23:54 | 43.01223 | -74.15276 | 38878 ft | 492 kts | 92° |
| 2026-05-03 23:54 | 43.01036 | -74.05922 | 38877 ft | 493 kts | 92° |
| 2026-05-03 23:55 | 43.00852 | -73.96565 | 38875 ft | 492 kts | 92° |
| 2026-05-03 23:55 | 43.00663 | -73.87226 | 38877 ft | 491 kts | 92° |
| 2026-05-03 23:56 | 43.00499 | -73.79474 | 38876 ft | 491 kts | 92° |
| 2026-05-03 23:56 | 43.00295 | -73.70131 | 38874 ft | 493 kts | 92° |
| 2026-05-03 23:57 | 43.00046 | -73.59239 | 38863 ft | 494 kts | 92° |
| 2026-05-03 23:57 | 42.99858 | -73.51392 | 38859 ft | 493 kts | 92° |
| 2026-05-03 23:58 | 42.99628 | -73.42030 | 38857 ft | 494 kts | 92° |
| 2026-05-03 23:58 | 43.00259 | -73.32716 | 38863 ft | 495 kts | 76° |
| 2026-05-03 23:59 | 43.02022 | -73.23671 | 38854 ft | 497 kts | 73° |
| 2026-05-03 23:59 | 43.03959 | -73.14627 | 38854 ft | 495 kts | 72° |
| 2026-05-04 00:00 | 43.05935 | -73.05607 | 38867 ft | 496 kts | 72° |
| 2026-05-04 00:00 | 43.07921 | -72.96574 | 38695 ft | 496 kts | 72° |
| 2026-05-04 00:01 | 43.08910 | -72.92068 | 38187 ft | 494 kts | 72° |
| 2026-05-04 00:01 | 43.09893 | -72.87575 | 37284 ft | 492 kts | 72° |
| 2026-05-04 00:01 | 43.10869 | -72.83092 | 36305 ft | 491 kts | 72° |
| 2026-05-04 00:01 | 43.11839 | -72.78622 | 35345 ft | 490 kts | 72° |
| 2026-05-04 00:02 | 43.12806 | -72.74156 | 34395 ft | 489 kts | 72° |
| 2026-05-04 00:02 | 43.13768 | -72.69703 | 33335 ft | 488 kts | 71° |
| 2026-05-04 00:02 | 43.14723 | -72.65281 | 32489 ft | 479 kts | 71° |
| 2026-05-04 00:02 | 43.15657 | -72.60948 | 31697 ft | 470 kts | 71° |
| 2026-05-04 00:03 | 43.16571 | -72.56693 | 30909 ft | 462 kts | 71° |
| 2026-05-04 00:03 | 43.17469 | -72.52510 | 30136 ft | 454 kts | 70° |
| 2026-05-04 00:03 | 43.18351 | -72.48390 | 29240 ft | 447 kts | 70° |
| 2026-05-04 00:03 | 43.19220 | -72.44338 | 28339 ft | 440 kts | 70° |
| 2026-05-04 00:04 | 43.20075 | -72.40342 | 27471 ft | 433 kts | 70° |
| 2026-05-04 00:04 | 43.20916 | -72.36412 | 26632 ft | 427 kts | 70° |
| 2026-05-04 00:04 | 43.21745 | -72.32533 | 25805 ft | 421 kts | 69° |
| 2026-05-04 00:04 | 43.22560 | -72.28711 | 24999 ft | 415 kts | 69° |
| 2026-05-04 00:05 | 43.23365 | -72.24938 | 24227 ft | 409 kts | 69° |
| 2026-05-04 00:05 | 43.24158 | -72.21217 | 23460 ft | 404 kts | 69° |
| 2026-05-04 00:05 | 43.24940 | -72.17545 | 22594 ft | 399 kts | 69° |
| 2026-05-04 00:05 | 43.25713 | -72.13924 | 21753 ft | 393 kts | 69° |
| 2026-05-04 00:06 | 43.26474 | -72.10346 | 20936 ft | 388 kts | 69° |
| 2026-05-04 00:06 | 43.27224 | -72.06816 | 20137 ft | 383 kts | 69° |
| 2026-05-04 00:06 | 43.27965 | -72.03326 | 19361 ft | 378 kts | 69° |
| 2026-05-04 00:06 | 43.28695 | -71.99881 | 18576 ft | 374 kts | 69° |
| 2026-05-04 00:07 | 43.29415 | -71.96471 | 17795 ft | 370 kts | 69° |
| 2026-05-04 00:07 | 43.30124 | -71.93107 | 16969 ft | 365 kts | 69° |
| 2026-05-04 00:07 | 43.30823 | -71.89777 | 16164 ft | 361 kts | 69° |
| 2026-05-04 00:07 | 43.31512 | -71.86484 | 15386 ft | 357 kts | 69° |
| 2026-05-04 00:08 | 43.32182 | -71.83275 | 14633 ft | 352 kts | 69° |
| 2026-05-04 00:08 | 43.32854 | -71.80060 | 13895 ft | 349 kts | 69° |
| 2026-05-04 00:08 | 43.33519 | -71.76877 | 13099 ft | 345 kts | 69° |
| 2026-05-04 00:08 | 43.34177 | -71.73729 | 12330 ft | 341 kts | 69° |
| 2026-05-04 00:09 | 43.34824 | -71.70624 | 11588 ft | 338 kts | 69° |
| 2026-05-04 00:09 | 43.35485 | -71.67471 | 11202 ft | 339 kts | 69° |
| 2026-05-04 00:09 | 43.36110 | -71.64446 | 10999 ft | 318 kts | 69° |
| 2026-05-04 00:09 | 43.36688 | -71.61614 | 10916 ft | 300 kts | 69° |
| 2026-05-04 00:10 | 43.37252 | -71.58862 | 10880 ft | 300 kts | 69° |
| 2026-05-04 00:10 | 43.37821 | -71.56108 | 10862 ft | 299 kts | 69° |
| 2026-05-04 00:10 | 43.38388 | -71.53369 | 10852 ft | 297 kts | 69° |
| 2026-05-04 00:10 | 43.38955 | -71.50634 | 10849 ft | 298 kts | 69° |
| 2026-05-04 00:11 | 43.39526 | -71.47887 | 10841 ft | 298 kts | 69° |
| 2026-05-04 00:11 | 43.40091 | -71.45149 | 10842 ft | 297 kts | 69° |
| 2026-05-04 00:11 | 43.40657 | -71.42405 | 10847 ft | 299 kts | 69° |
| 2026-05-04 00:11 | 43.41221 | -71.39661 | 10846 ft | 297 kts | 69° |
| 2026-05-04 00:12 | 43.41781 | -71.36923 | 10844 ft | 298 kts | 69° |
| 2026-05-04 00:12 | 43.42342 | -71.34175 | 10845 ft | 298 kts | 69° |
| 2026-05-04 00:12 | 43.42901 | -71.31436 | 10842 ft | 297 kts | 69° |
| 2026-05-04 00:12 | 43.43460 | -71.28694 | 10845 ft | 298 kts | 69° |
| 2026-05-04 00:13 | 43.44018 | -71.25948 | 10840 ft | 297 kts | 69° |
| 2026-05-04 00:13 | 43.44571 | -71.23219 | 10841 ft | 297 kts | 70° |
| 2026-05-04 00:13 | 43.45129 | -71.20470 | 10833 ft | 299 kts | 70° |
| 2026-05-04 00:13 | 43.45703 | -71.17736 | 10836 ft | 296 kts | 68° |
| 2026-05-04 00:14 | 43.46322 | -71.15031 | 10832 ft | 297 kts | 67° |
| 2026-05-04 00:14 | 43.46977 | -71.12337 | 10828 ft | 296 kts | 66° |
| 2026-05-04 00:14 | 43.47652 | -71.09667 | 10823 ft | 295 kts | 66° |
| 2026-05-04 00:14 | 43.48346 | -71.07004 | 10825 ft | 296 kts | 65° |
| 2026-05-04 00:15 | 43.49049 | -71.04341 | 10821 ft | 295 kts | 65° |
| 2026-05-04 00:15 | 43.49755 | -71.01694 | 10821 ft | 294 kts | 65° |
| 2026-05-04 00:15 | 43.50468 | -70.99039 | 10823 ft | 297 kts | 65° |
| 2026-05-04 00:15 | 43.51183 | -70.96379 | 10822 ft | 295 kts | 65° |
| 2026-05-04 00:16 | 43.51892 | -70.93737 | 10825 ft | 295 kts | 65° |
| 2026-05-04 00:16 | 43.52601 | -70.91078 | 10827 ft | 295 kts | 67° |
| 2026-05-04 00:16 | 43.52852 | -70.88355 | 10832 ft | 285 kts | 91° |
| 2026-05-04 00:16 | 43.52610 | -70.85634 | 10830 ft | 288 kts | 96° |
| 2026-05-04 00:17 | 43.52279 | -70.82918 | 10833 ft | 286 kts | 97° |
| 2026-05-04 00:17 | 43.51933 | -70.80217 | 10700 ft | 285 kts | 97° |
| 2026-05-04 00:17 | 43.51599 | -70.77532 | 10281 ft | 284 kts | 97° |
| 2026-05-04 00:17 | 43.51285 | -70.74861 | 9846 ft | 281 kts | 96° |
| 2026-05-04 00:18 | 43.50995 | -70.72206 | 9354 ft | 279 kts | 96° |
| 2026-05-04 00:18 | 43.50724 | -70.69570 | 8844 ft | 278 kts | 95° |
| 2026-05-04 00:18 | 43.50471 | -70.66940 | 8369 ft | 276 kts | 94° |
| 2026-05-04 00:18 | 43.50232 | -70.64334 | 7913 ft | 273 kts | 94° |
| 2026-05-04 00:19 | 43.50004 | -70.61741 | 7427 ft | 272 kts | 93° |
| 2026-05-04 00:19 | 43.49784 | -70.59165 | 6962 ft | 270 kts | 93° |
| 2026-05-04 00:19 | 43.49570 | -70.56595 | 6521 ft | 269 kts | 92° |
| 2026-05-04 00:19 | 43.49360 | -70.54027 | 6255 ft | 269 kts | 92° |
| 2026-05-04 00:20 | 43.49154 | -70.51493 | 6147 ft | 265 kts | 92° |
| 2026-05-04 00:20 | 43.48957 | -70.49006 | 6083 ft | 266 kts | 92° |
| 2026-05-04 00:20 | 43.48756 | -70.46476 | 6050 ft | 265 kts | 92° |
| 2026-05-04 00:20 | 43.48554 | -70.43956 | 6042 ft | 265 kts | 92° |
| 2026-05-04 00:21 | 43.48350 | -70.41431 | 6040 ft | 266 kts | 92° |
| 2026-05-04 00:21 | 43.48146 | -70.38906 | 6033 ft | 265 kts | 92° |
| 2026-05-04 00:21 | 43.47943 | -70.36388 | 6033 ft | 265 kts | 92° |
| 2026-05-04 00:21 | 43.47741 | -70.33862 | 6032 ft | 265 kts | 92° |
| 2026-05-04 00:22 | 43.47313 | -70.31387 | 6032 ft | 268 kts | 107° |
| 2026-05-04 00:22 | 43.46650 | -70.28984 | 6035 ft | 269 kts | 109° |
| 2026-05-04 00:22 | 43.46019 | -70.26564 | 6031 ft | 267 kts | 104° |
| 2026-05-04 00:22 | 43.45576 | -70.24085 | 6031 ft | 266 kts | 97° |
| 2026-05-04 00:23 | 43.45346 | -70.21563 | 6030 ft | 265 kts | 90° |
| 2026-05-04 00:23 | 43.45292 | -70.19046 | 6032 ft | 263 kts | 85° |
| 2026-05-04 00:23 | 43.45371 | -70.16541 | 6027 ft | 262 kts | 81° |
| 2026-05-04 00:23 | 43.45544 | -70.14054 | 6025 ft | 260 kts | 78° |
| 2026-05-04 00:24 | 43.45783 | -70.11583 | 6025 ft | 261 kts | 76° |
| 2026-05-04 00:24 | 43.46074 | -70.09126 | 6028 ft | 259 kts | 75° |
| 2026-05-04 00:24 | 43.46430 | -70.06703 | 6023 ft | 257 kts | 71° |
| 2026-05-04 00:24 | 43.46951 | -70.04358 | 5844 ft | 254 kts | 63° |
| 2026-05-04 00:25 | 43.47718 | -70.02209 | 5424 ft | 247 kts | 51° |
| 2026-05-04 00:25 | 43.48757 | -70.00369 | 4945 ft | 241 kts | 40° |
| 2026-05-04 00:25 | 43.50011 | -69.98898 | 4496 ft | 233 kts | 27° |
| 2026-05-04 00:25 | 43.51406 | -69.97826 | 4034 ft | 227 kts | 18° |
| 2026-05-04 00:26 | 43.52881 | -69.97159 | 3576 ft | 221 kts | 6° |
| 2026-05-04 00:26 | 43.54396 | -69.96896 | 3255 ft | 218 kts | 357° |
| 2026-05-04 00:26 | 43.55875 | -69.97008 | 3117 ft | 210 kts | 346° |
| 2026-05-04 00:26 | 43.57293 | -69.97483 | 3063 ft | 210 kts | 338° |
| 2026-05-04 00:27 | 43.58616 | -69.98271 | 3046 ft | 206 kts | 328° |
| 2026-05-04 00:27 | 43.59795 | -69.99401 | 3031 ft | 207 kts | 317° |
| 2026-05-04 00:27 | 43.60780 | -70.00829 | 3016 ft | 204 kts | 302° |
| 2026-05-04 00:27 | 43.61305 | -70.02664 | 3019 ft | 208 kts | 289° |
| 2026-05-04 00:28 | 43.61691 | -70.04557 | 3013 ft | 207 kts | 287° |
| 2026-05-04 00:28 | 43.62048 | -70.06492 | 3018 ft | 209 kts | 286° |
| 2026-05-04 00:28 | 43.62382 | -70.08439 | 3021 ft | 207 kts | 285° |
| 2026-05-04 00:28 | 43.62690 | -70.10349 | 3047 ft | 193 kts | 285° |
| 2026-05-04 00:29 | 43.62953 | -70.12072 | 3035 ft | 175 kts | 285° |
| 2026-05-04 00:29 | 43.63173 | -70.13617 | 3031 ft | 154 kts | 284° |
| 2026-05-04 00:29 | 43.63178 | -70.15057 | 2839 ft | 147 kts | 269° |
| 2026-05-04 00:29 | 43.63154 | -70.16395 | 2462 ft | 136 kts | 283° |
| 2026-05-04 00:30 | 43.63358 | -70.17648 | 2061 ft | 132 kts | 288° |
| 2026-05-04 00:30 | 43.63578 | -70.18849 | 1751 ft | 125 kts | 286° |
| 2026-05-04 00:30 | 43.63626 | -70.20016 | 1476 ft | 119 kts | 278° |
| 2026-05-04 00:30 | 43.63706 | -70.21102 | 1349 ft | 106 kts | 281° |
| 2026-05-04 00:31 | 43.63807 | -70.22140 | 1225 ft | 112 kts | 284° |
| 2026-05-04 00:31 | 43.63925 | -70.23206 | 1009 ft | 112 kts | 281° |
| 2026-05-04 00:31 | 43.63987 | -70.24284 | 901 ft | 113 kts | 278° |
| 2026-05-04 00:31 | 43.64066 | -70.25385 | 780 ft | 115 kts | 279° |
| 2026-05-04 00:32 | 43.64149 | -70.26497 | 562 ft | 115 kts | 278° |
| 2026-05-04 00:32 | 43.64246 | -70.27560 | 404 ft | 112 kts | 277° |
| 2026-05-04 00:32 | 43.64311 | -70.28639 | 265 ft | 112 kts | 276° |
| 2026-05-04 00:32 | 43.64389 | -70.29724 | 97 ft | 117 kts | 276° |
| 2026-05-04 00:33 | 43.64450 | -70.30767 | 58 ft | 79 kts | 276° |
| 2026-05-04 00:33 | 43.64540 | -70.31955 | 76 ft | 47 kts | 275° |
| 2026-05-04 00:33 | 43.64560 | -70.32266 | 82 ft | 0 kts | 275° |
| 2026-05-04 00:34 | 43.64572 | -70.32416 | 83 ft | 25 kts | 276° |
| 2026-05-04 00:34 | 43.64615 | -70.32572 | 86 ft | 10 kts | 352° |
| 2026-05-04 00:34 | 43.64644 | -70.32578 | 84 ft | 0 kts | 356° |
| 2026-05-04 00:36 | 43.64652 | -70.32577 | 83 ft | 3 kts | 4° |
| 2026-05-04 00:36 | 43.64670 | -70.32550 | 84 ft | 7 kts | 65° |
| 2026-05-04 00:36 | 43.64680 | -70.32463 | 83 ft | 11 kts | 85° |
| 2026-05-04 00:37 | 43.64679 | -70.32335 | 84 ft | 15 kts | 94° |
| 2026-05-04 00:37 | 43.64668 | -70.32161 | 82 ft | 22 kts | 96° |
| 2026-05-04 00:37 | 43.64652 | -70.31919 | 74 ft | 29 kts | 96° |
| 2026-05-04 00:37 | 43.64631 | -70.31620 | 63 ft | 33 kts | 96° |
| 2026-05-04 00:38 | 43.64613 | -70.31350 | 62 ft | 12 kts | 95° |
| 2026-05-04 00:38 | 43.64610 | -70.31298 | 64 ft | 1 kts | 94° |
| 2026-05-04 00:38 | 43.64610 | -70.31278 | 61 ft | 3 kts | 89° |
| 2026-05-04 00:38 | 43.64617 | -70.31245 | 63 ft | 5 kts | 63° |
| 2026-05-04 00:39 | 43.64638 | -70.31207 | 60 ft | 6 kts | 39° |
| 2026-05-04 00:39 | 43.64666 | -70.31185 | 63 ft | 0 kts | 26° |